Аэропорт: Сары-Арка. Караганда

ICAO: UAKK

METAR:
2020-08-13 10:30:00
UAKK 131030Z 26009MPS 9999 BKN036CB 16/14 Q1006 R23/1///65 NOSIG RMK QFE708/0944
METAR:
2020-08-13 08:03:00
TAF AMD UAKK 130803Z 1308/1406 29006MPS 9999 BKN030 TX20/1310Z TN08/1323Z TEMPO 1308/1315 29009MPS 3100 -SHRA SCT005 BKN015CB BECMG 1315/1317 VRB02MPS 5000 BR TEMPO 1315/1403 1000 -RA BR SCT002 BKN015 BECMG 1403/1405 32005MPS 9999 NSW